sensor_id;sensor_type;location;lat;lon;timestamp;temperature;humidity
60353;DHT22;46196;52.970;6.954;2023-02-16T00:01:32;5.60;99.90
60353;DHT22;46196;52.970;6.954;2023-02-16T00:03:59;5.50;99.90
60353;DHT22;46196;52.970;6.954;2023-02-16T00:06:28;5.50;99.90
60353;DHT22;46196;52.970;6.954;2023-02-16T00:08:55;5.40;99.90
60353;DHT22;46196;52.970;6.954;2023-02-16T00:14:09;5.40;99.90
60353;DHT22;46196;52.970;6.954;2023-02-16T00:16:36;5.30;99.90
60353;DHT22;46196;52.970;6.954;2023-02-16T00:19:16;5.30;99.90
60353;DHT22;46196;52.970;6.954;2023-02-16T00:21:43;5.30;99.90
60353;DHT22;46196;52.970;6.954;2023-02-16T00:24:09;4.10;99.90
60353;DHT22;46196;52.970;6.954;2023-02-16T00:26:34;5.20;99.90
60353;DHT22;46196;52.970;6.954;2023-02-16T00:29:00;5.20;99.90
60353;DHT22;46196;52.970;6.954;2023-02-16T00:31:28;5.30;99.90
60353;DHT22;46196;52.970;6.954;2023-02-16T00:33:58;5.30;99.90
60353;DHT22;46196;52.970;6.954;2023-02-16T00:36:26;5.30;99.90
60353;DHT22;46196;52.970;6.954;2023-02-16T00:38:52;5.30;99.90
60353;DHT22;46196;52.970;6.954;2023-02-16T00:41:22;5.40;99.90
60353;DHT22;46196;52.970;6.954;2023-02-16T00:46:51;5.50;99.90
60353;DHT22;46196;52.970;6.954;2023-02-16T00:49:19;5.60;99.90
60353;DHT22;46196;52.970;6.954;2023-02-16T00:51:45;5.60;99.90
60353;DHT22;46196;52.970;6.954;2023-02-16T00:54:11;5.70;99.90
60353;DHT22;46196;52.970;6.954;2023-02-16T00:56:38;5.70;99.90
60353;DHT22;46196;52.970;6.954;2023-02-16T00:59:07;5.70;99.90
60353;DHT22;46196;52.970;6.954;2023-02-16T01:01:36;5.70;99.90
60353;DHT22;46196;52.970;6.954;2023-02-16T01:04:05;5.80;99.90
60353;DHT22;46196;52.970;6.954;2023-02-16T01:06:32;5.70;99.90
60353;DHT22;46196;52.970;6.954;2023-02-16T01:09:18;4.60;99.90
60353;DHT22;46196;52.970;6.954;2023-02-16T01:12:08;5.70;99.90
60353;DHT22;46196;52.970;6.954;2023-02-16T01:14:35;5.70;99.90
60353;DHT22;46196;52.970;6.954;2023-02-16T01:17:00;5.70;99.90
60353;DHT22;46196;52.970;6.954;2023-02-16T01:19:26;5.70;99.90
60353;DHT22;46196;52.970;6.954;2023-02-16T01:21:53;5.60;99.90
60353;DHT22;46196;52.970;6.954;2023-02-16T01:24:18;5.60;99.90
60353;DHT22;46196;52.970;6.954;2023-02-16T01:26:48;5.60;99.90
60353;DHT22;46196;52.970;6.954;2023-02-16T01:29:16;6.50;99.90
60353;DHT22;46196;52.970;6.954;2023-02-16T01:31:43;5.60;99.90
60353;DHT22;46196;52.970;6.954;2023-02-16T01:34:09;5.50;99.90
60353;DHT22;46196;52.970;6.954;2023-02-16T01:36:41;5.50;99.90
60353;DHT22;46196;52.970;6.954;2023-02-16T01:39:08;5.50;99.90
60353;DHT22;46196;52.970;6.954;2023-02-16T01:44:24;6.80;99.90
60353;DHT22;46196;52.970;6.954;2023-02-16T01:49:18;5.40;99.90
60353;DHT22;46196;52.970;6.954;2023-02-16T02:02:59;5.30;99.90
60353;DHT22;46196;52.970;6.954;2023-02-16T02:05:46;5.80;99.90
60353;DHT22;46196;52.970;6.954;2023-02-16T02:11:15;5.30;99.90
60353;DHT22;46196;52.970;6.954;2023-02-16T02:13:57;5.30;99.90
60353;DHT22;46196;52.970;6.954;2023-02-16T02:16:24;5.30;99.90
60353;DHT22;46196;52.970;6.954;2023-02-16T02:18:52;5.30;99.90
60353;DHT22;46196;52.970;6.954;2023-02-16T02:35:14;5.10;99.90
60353;DHT22;46196;52.970;6.954;2023-02-16T02:40:55;5.00;99.90
60353;DHT22;46196;52.970;6.954;2023-02-16T02:43:43;5.00;99.90
60353;DHT22;46196;52.970;6.954;2023-02-16T02:46:17;4.90;99.90
60353;DHT22;46196;52.970;6.954;2023-02-16T02:48:43;4.90;99.90
60353;DHT22;46196;52.970;6.954;2023-02-16T02:51:12;6.40;99.90
60353;DHT22;46196;52.970;6.954;2023-02-16T02:59:45;4.70;99.90
60353;DHT22;46196;52.970;6.954;2023-02-16T03:02:31;6.10;99.90
60353;DHT22;46196;52.970;6.954;2023-02-16T03:04:59;4.60;99.90
60353;DHT22;46196;52.970;6.954;2023-02-16T03:07:27;4.60;99.90
60353;DHT22;46196;52.970;6.954;2023-02-16T03:10:22;5.30;99.90
60353;DHT22;46196;52.970;6.954;2023-02-16T03:13:15;4.60;99.90
60353;DHT22;46196;52.970;6.954;2023-02-16T03:15:44;5.80;99.90
60353;DHT22;46196;52.970;6.954;2023-02-16T03:18:12;4.50;99.90
60353;DHT22;46196;52.970;6.954;2023-02-16T03:21:01;4.50;99.90
60353;DHT22;46196;52.970;6.954;2023-02-16T03:23:47;4.40;99.90
60353;DHT22;46196;52.970;6.954;2023-02-16T03:26:34;4.40;99.90
60353;DHT22;46196;52.970;6.954;2023-02-16T03:29:19;4.40;99.90
60353;DHT22;46196;52.970;6.954;2023-02-16T03:31:52;4.40;99.90
60353;DHT22;46196;52.970;6.954;2023-02-16T03:34:20;4.40;99.90
60353;DHT22;46196;52.970;6.954;2023-02-16T03:36:52;5.00;99.90
60353;DHT22;46196;52.970;6.954;2023-02-16T03:39:27;4.40;99.90
60353;DHT22;46196;52.970;6.954;2023-02-16T03:41:54;4.40;99.90
60353;DHT22;46196;52.970;6.954;2023-02-16T03:44:20;5.20;99.90
60353;DHT22;46196;52.970;6.954;2023-02-16T03:46:47;4.50;99.90
60353;DHT22;46196;52.970;6.954;2023-02-16T03:49:18;4.50;99.90
60353;DHT22;46196;52.970;6.954;2023-02-16T03:51:45;4.60;99.90
60353;DHT22;46196;52.970;6.954;2023-02-16T03:54:11;4.60;99.90
60353;DHT22;46196;52.970;6.954;2023-02-16T03:56:37;4.70;99.90
60353;DHT22;46196;52.970;6.954;2023-02-16T03:59:03;6.10;99.90
60353;DHT22;46196;52.970;6.954;2023-02-16T04:01:29;5.40;99.90
60353;DHT22;46196;52.970;6.954;2023-02-16T04:03:55;5.40;99.90
60353;DHT22;46196;52.970;6.954;2023-02-16T04:06:21;4.80;99.90
60353;DHT22;46196;52.970;6.954;2023-02-16T04:08:46;4.90;99.90
60353;DHT22;46196;52.970;6.954;2023-02-16T04:11:12;4.90;99.90
60353;DHT22;46196;52.970;6.954;2023-02-16T04:13:57;5.30;99.90
60353;DHT22;46196;52.970;6.954;2023-02-16T04:16:23;5.00;99.90
60353;DHT22;46196;52.970;6.954;2023-02-16T04:18:48;5.00;99.90
60353;DHT22;46196;52.970;6.954;2023-02-16T04:21:14;5.10;99.90
60353;DHT22;46196;52.970;6.954;2023-02-16T04:23:40;5.10;99.90
60353;DHT22;46196;52.970;6.954;2023-02-16T04:26:06;5.20;99.90
60353;DHT22;46196;52.970;6.954;2023-02-16T04:28:31;6.20;99.90
60353;DHT22;46196;52.970;6.954;2023-02-16T04:30:58;5.20;99.90
60353;DHT22;46196;52.970;6.954;2023-02-16T04:33:23;5.30;99.90
60353;DHT22;46196;52.970;6.954;2023-02-16T04:35:49;5.40;99.90
60353;DHT22;46196;52.970;6.954;2023-02-16T04:38:15;5.30;99.90
60353;DHT22;46196;52.970;6.954;2023-02-16T04:40:41;5.30;99.90
60353;DHT22;46196;52.970;6.954;2023-02-16T04:43:07;5.40;99.90
60353;DHT22;46196;52.970;6.954;2023-02-16T04:45:33;5.40;99.90
60353;DHT22;46196;52.970;6.954;2023-02-16T04:47:58;5.40;99.90
60353;DHT22;46196;52.970;6.954;2023-02-16T04:50:24;5.50;99.90
60353;DHT22;46196;52.970;6.954;2023-02-16T04:52:50;5.50;99.90
60353;DHT22;46196;52.970;6.954;2023-02-16T04:55:16;5.50;99.90
60353;DHT22;46196;52.970;6.954;2023-02-16T04:57:42;5.50;99.90
60353;DHT22;46196;52.970;6.954;2023-02-16T05:00:08;5.50;99.90
60353;DHT22;46196;52.970;6.954;2023-02-16T05:02:36;5.50;99.90
60353;DHT22;46196;52.970;6.954;2023-02-16T05:05:02;5.50;99.90
60353;DHT22;46196;52.970;6.954;2023-02-16T05:07:28;5.50;99.90
60353;DHT22;46196;52.970;6.954;2023-02-16T05:09:53;5.50;99.90
60353;DHT22;46196;52.970;6.954;2023-02-16T05:12:19;5.60;99.90
60353;DHT22;46196;52.970;6.954;2023-02-16T05:15:04;5.60;99.90
60353;DHT22;46196;52.970;6.954;2023-02-16T05:17:30;5.60;99.90
60353;DHT22;46196;52.970;6.954;2023-02-16T05:19:58;5.70;99.90
60353;DHT22;46196;52.970;6.954;2023-02-16T05:22:25;5.60;99.90
60353;DHT22;46196;52.970;6.954;2023-02-16T05:24:51;5.60;99.90
60353;DHT22;46196;52.970;6.954;2023-02-16T05:27:20;6.40;99.90
60353;DHT22;46196;52.970;6.954;2023-02-16T05:29:46;5.70;99.90
60353;DHT22;46196;52.970;6.954;2023-02-16T05:32:12;5.70;99.90
60353;DHT22;46196;52.970;6.954;2023-02-16T05:34:38;6.00;99.90
60353;DHT22;46196;52.970;6.954;2023-02-16T05:37:04;5.70;99.90
60353;DHT22;46196;52.970;6.954;2023-02-16T05:39:30;5.50;99.90
60353;DHT22;46196;52.970;6.954;2023-02-16T05:42:02;5.80;99.90
60353;DHT22;46196;52.970;6.954;2023-02-16T05:44:31;5.80;99.90
60353;DHT22;46196;52.970;6.954;2023-02-16T05:46:56;5.80;99.90
60353;DHT22;46196;52.970;6.954;2023-02-16T05:49:22;5.80;99.90
60353;DHT22;46196;52.970;6.954;2023-02-16T05:51:48;5.80;99.90
60353;DHT22;46196;52.970;6.954;2023-02-16T05:54:14;5.80;99.90
60353;DHT22;46196;52.970;6.954;2023-02-16T05:56:47;5.90;99.90
60353;DHT22;46196;52.970;6.954;2023-02-16T05:59:14;5.90;99.90
60353;DHT22;46196;52.970;6.954;2023-02-16T06:01:41;5.90;99.90
60353;DHT22;46196;52.970;6.954;2023-02-16T06:04:08;5.80;99.90
60353;DHT22;46196;52.970;6.954;2023-02-16T06:06:35;5.80;99.90
60353;DHT22;46196;52.970;6.954;2023-02-16T06:09:02;5.80;99.90
60353;DHT22;46196;52.970;6.954;2023-02-16T06:11:28;5.80;99.90
60353;DHT22;46196;52.970;6.954;2023-02-16T06:14:08;5.90;99.90
60353;DHT22;46196;52.970;6.954;2023-02-16T06:16:37;5.90;99.90
60353;DHT22;46196;52.970;6.954;2023-02-16T06:19:03;5.90;99.90
60353;DHT22;46196;52.970;6.954;2023-02-16T06:21:29;5.90;99.90
60353;DHT22;46196;52.970;6.954;2023-02-16T06:23:55;5.90;99.90
60353;DHT22;46196;52.970;6.954;2023-02-16T06:26:21;5.90;99.90
60353;DHT22;46196;52.970;6.954;2023-02-16T06:28:47;5.90;99.90
60353;DHT22;46196;52.970;6.954;2023-02-16T06:31:13;5.90;99.90
60353;DHT22;46196;52.970;6.954;2023-02-16T06:33:39;5.90;99.90
60353;DHT22;46196;52.970;6.954;2023-02-16T06:36:06;6.40;99.90
60353;DHT22;46196;52.970;6.954;2023-02-16T06:38:31;5.90;99.90
60353;DHT22;46196;52.970;6.954;2023-02-16T06:40:58;5.90;99.90
60353;DHT22;46196;52.970;6.954;2023-02-16T06:43:23;5.90;99.90
60353;DHT22;46196;52.970;6.954;2023-02-16T06:45:49;5.90;99.90
60353;DHT22;46196;52.970;6.954;2023-02-16T06:48:15;6.00;99.90
60353;DHT22;46196;52.970;6.954;2023-02-16T06:50:40;6.00;99.90
60353;DHT22;46196;52.970;6.954;2023-02-16T06:53:06;6.00;99.90
60353;DHT22;46196;52.970;6.954;2023-02-16T06:55:32;6.00;99.90
60353;DHT22;46196;52.970;6.954;2023-02-16T06:58:05;6.70;99.90
60353;DHT22;46196;52.970;6.954;2023-02-16T07:00:31;6.00;99.90
60353;DHT22;46196;52.970;6.954;2023-02-16T07:02:57;6.00;99.90
60353;DHT22;46196;52.970;6.954;2023-02-16T07:05:23;6.00;99.90
60353;DHT22;46196;52.970;6.954;2023-02-16T07:07:49;6.10;99.90
60353;DHT22;46196;52.970;6.954;2023-02-16T07:10:15;6.00;99.90
60353;DHT22;46196;52.970;6.954;2023-02-16T07:12:41;6.00;99.90
60353;DHT22;46196;52.970;6.954;2023-02-16T07:15:07;7.20;99.90
60353;DHT22;46196;52.970;6.954;2023-02-16T07:17:33;6.10;99.90
60353;DHT22;46196;52.970;6.954;2023-02-16T07:19:58;6.00;99.90
60353;DHT22;46196;52.970;6.954;2023-02-16T07:22:24;6.10;99.90
60353;DHT22;46196;52.970;6.954;2023-02-16T07:24:50;6.10;99.90
60353;DHT22;46196;52.970;6.954;2023-02-16T07:27:16;6.10;99.90
60353;DHT22;46196;52.970;6.954;2023-02-16T07:29:41;6.10;99.90
60353;DHT22;46196;52.970;6.954;2023-02-16T07:32:07;6.10;99.90
60353;DHT22;46196;52.970;6.954;2023-02-16T07:34:33;6.70;99.90
60353;DHT22;46196;52.970;6.954;2023-02-16T07:36:59;6.20;99.90
60353;DHT22;46196;52.970;6.954;2023-02-16T07:39:25;6.20;99.90
60353;DHT22;46196;52.970;6.954;2023-02-16T07:41:53;6.20;99.90
60353;DHT22;46196;52.970;6.954;2023-02-16T07:44:19;6.40;99.90
60353;DHT22;46196;52.970;6.954;2023-02-16T07:46:45;6.20;99.90
60353;DHT22;46196;52.970;6.954;2023-02-16T07:49:11;6.20;99.90
60353;DHT22;46196;52.970;6.954;2023-02-16T07:51:36;6.20;99.90
60353;DHT22;46196;52.970;6.954;2023-02-16T07:54:02;6.30;99.90
60353;DHT22;46196;52.970;6.954;2023-02-16T07:56:30;6.30;99.90
60353;DHT22;46196;52.970;6.954;2023-02-16T07:58:58;6.30;99.90
60353;DHT22;46196;52.970;6.954;2023-02-16T08:01:25;6.40;99.90
60353;DHT22;46196;52.970;6.954;2023-02-16T08:03:51;6.40;99.90
60353;DHT22;46196;52.970;6.954;2023-02-16T08:06:17;6.30;99.90
60353;DHT22;46196;52.970;6.954;2023-02-16T08:08:44;6.50;99.90
60353;DHT22;46196;52.970;6.954;2023-02-16T08:11:28;6.50;99.90
60353;DHT22;46196;52.970;6.954;2023-02-16T08:13:54;6.50;99.90
60353;DHT22;46196;52.970;6.954;2023-02-16T08:16:22;6.60;99.90
60353;DHT22;46196;52.970;6.954;2023-02-16T08:18:48;6.60;99.90
60353;DHT22;46196;52.970;6.954;2023-02-16T08:21:20;6.60;99.90
60353;DHT22;46196;52.970;6.954;2023-02-16T08:23:59;6.70;99.90
60353;DHT22;46196;52.970;6.954;2023-02-16T08:26:27;6.70;99.90
60353;DHT22;46196;52.970;6.954;2023-02-16T08:28:56;6.70;99.90
60353;DHT22;46196;52.970;6.954;2023-02-16T08:31:24;6.70;99.90
60353;DHT22;46196;52.970;6.954;2023-02-16T08:33:55;6.70;99.90
60353;DHT22;46196;52.970;6.954;2023-02-16T08:36:24;6.70;99.90
60353;DHT22;46196;52.970;6.954;2023-02-16T08:38:52;6.70;99.90
60353;DHT22;46196;52.970;6.954;2023-02-16T08:41:20;6.90;99.90
60353;DHT22;46196;52.970;6.954;2023-02-16T08:43:47;6.80;99.90
60353;DHT22;46196;52.970;6.954;2023-02-16T08:46:14;6.20;99.90
60353;DHT22;46196;52.970;6.954;2023-02-16T08:48:40;5.60;99.90
60353;DHT22;46196;52.970;6.954;2023-02-16T08:51:06;6.70;99.90
60353;DHT22;46196;52.970;6.954;2023-02-16T08:53:33;6.80;99.90
60353;DHT22;46196;52.970;6.954;2023-02-16T08:56:00;6.70;99.90
60353;DHT22;46196;52.970;6.954;2023-02-16T08:58:28;6.80;99.90
60353;DHT22;46196;52.970;6.954;2023-02-16T09:00:55;6.70;99.90
60353;DHT22;46196;52.970;6.954;2023-02-16T09:03:21;6.70;99.90
60353;DHT22;46196;52.970;6.954;2023-02-16T09:05:49;6.70;99.90
60353;DHT22;46196;52.970;6.954;2023-02-16T09:08:15;6.80;99.90
60353;DHT22;46196;52.970;6.954;2023-02-16T09:10:42;6.80;99.90
60353;DHT22;46196;52.970;6.954;2023-02-16T09:13:09;6.80;99.90
60353;DHT22;46196;52.970;6.954;2023-02-16T09:15:44;6.80;99.90
60353;DHT22;46196;52.970;6.954;2023-02-16T09:18:12;6.80;99.90
60353;DHT22;46196;52.970;6.954;2023-02-16T09:20:40;6.80;99.90
60353;DHT22;46196;52.970;6.954;2023-02-16T09:23:08;6.80;99.90
60353;DHT22;46196;52.970;6.954;2023-02-16T09:25:36;6.90;99.90
60353;DHT22;46196;52.970;6.954;2023-02-16T09:28:03;6.80;99.90
60353;DHT22;46196;52.970;6.954;2023-02-16T09:30:30;6.80;99.90
60353;DHT22;46196;52.970;6.954;2023-02-16T09:32:58;6.80;99.90
60353;DHT22;46196;52.970;6.954;2023-02-16T09:35:25;6.80;99.90
60353;DHT22;46196;52.970;6.954;2023-02-16T09:37:51;6.80;99.90
60353;DHT22;46196;52.970;6.954;2023-02-16T09:40:17;6.80;99.90
60353;DHT22;46196;52.970;6.954;2023-02-16T09:45:48;6.80;99.90
60353;DHT22;46196;52.970;6.954;2023-02-16T09:50:45;6.80;99.90
60353;DHT22;46196;52.970;6.954;2023-02-16T09:53:23;6.90;99.90
60353;DHT22;46196;52.970;6.954;2023-02-16T09:56:20;6.90;99.90
60353;DHT22;46196;52.970;6.954;2023-02-16T09:58:52;6.90;99.90
60353;DHT22;46196;52.970;6.954;2023-02-16T10:01:46;6.90;99.90
60353;DHT22;46196;52.970;6.954;2023-02-16T10:10:05;7.00;99.90
60353;DHT22;46196;52.970;6.954;2023-02-16T10:12:37;7.00;99.90
60353;DHT22;46196;52.970;6.954;2023-02-16T10:15:16;7.00;99.90
60353;DHT22;46196;52.970;6.954;2023-02-16T10:20:18;7.00;99.90
60353;DHT22;46196;52.970;6.954;2023-02-16T10:23:23;7.10;99.90
60353;DHT22;46196;52.970;6.954;2023-02-16T10:25:55;7.10;99.90
60353;DHT22;46196;52.970;6.954;2023-02-16T10:28:37;7.20;99.90
60353;DHT22;46196;52.970;6.954;2023-02-16T10:31:12;7.20;99.90
60353;DHT22;46196;52.970;6.954;2023-02-16T10:36:23;7.30;99.90
60353;DHT22;46196;52.970;6.954;2023-02-16T10:39:24;7.40;99.90
60353;DHT22;46196;52.970;6.954;2023-02-16T10:41:56;7.40;99.90
60353;DHT22;46196;52.970;6.954;2023-02-16T10:44:42;7.50;99.90
60353;DHT22;46196;52.970;6.954;2023-02-16T10:47:38;7.60;99.90
60353;DHT22;46196;52.970;6.954;2023-02-16T10:50:19;7.60;99.90
60353;DHT22;46196;52.970;6.954;2023-02-16T10:52:46;7.60;99.90
60353;DHT22;46196;52.970;6.954;2023-02-16T10:55:12;7.60;99.90
60353;DHT22;46196;52.970;6.954;2023-02-16T10:57:38;7.60;99.90
60353;DHT22;46196;52.970;6.954;2023-02-16T11:00:10;7.60;99.90
60353;DHT22;46196;52.970;6.954;2023-02-16T11:02:40;7.60;99.90
60353;DHT22;46196;52.970;6.954;2023-02-16T11:07:56;7.70;99.90
60353;DHT22;46196;52.970;6.954;2023-02-16T11:10:38;7.60;99.90
60353;DHT22;46196;52.970;6.954;2023-02-16T11:13:06;7.60;99.90
60353;DHT22;46196;52.970;6.954;2023-02-16T11:15:34;7.60;99.90
60353;DHT22;46196;52.970;6.954;2023-02-16T11:18:07;7.70;99.90
60353;DHT22;46196;52.970;6.954;2023-02-16T11:23:29;7.60;99.90
60353;DHT22;46196;52.970;6.954;2023-02-16T11:28:34;7.50;99.90
60353;DHT22;46196;52.970;6.954;2023-02-16T11:31:11;7.50;99.90
60353;DHT22;46196;52.970;6.954;2023-02-16T11:33:38;7.50;99.90
60353;DHT22;46196;52.970;6.954;2023-02-16T11:36:30;7.60;99.90
60353;DHT22;46196;52.970;6.954;2023-02-16T11:39:03;7.60;99.90
60353;DHT22;46196;52.970;6.954;2023-02-16T11:41:30;7.60;99.90
60353;DHT22;46196;52.970;6.954;2023-02-16T11:43:58;7.60;99.90
60353;DHT22;46196;52.970;6.954;2023-02-16T11:46:25;8.10;99.90
60353;DHT22;46196;52.970;6.954;2023-02-16T11:48:51;7.60;99.90
60353;DHT22;46196;52.970;6.954;2023-02-16T11:51:37;7.60;99.90
60353;DHT22;46196;52.970;6.954;2023-02-16T11:54:05;7.60;99.90
60353;DHT22;46196;52.970;6.954;2023-02-16T11:56:34;7.60;99.90
60353;DHT22;46196;52.970;6.954;2023-02-16T11:59:18;7.60;99.90
60353;DHT22;46196;52.970;6.954;2023-02-16T12:07:37;9.90;99.90
60353;DHT22;46196;52.970;6.954;2023-02-16T12:10:22;7.80;99.90
60353;DHT22;46196;52.970;6.954;2023-02-16T12:13:03;7.80;99.90
60353;DHT22;46196;52.970;6.954;2023-02-16T12:15:42;7.90;99.90
60353;DHT22;46196;52.970;6.954;2023-02-16T12:21:29;8.00;99.90
60353;DHT22;46196;52.970;6.954;2023-02-16T12:24:21;8.10;99.90
60353;DHT22;46196;52.970;6.954;2023-02-16T12:26:55;8.10;99.90
60353;DHT22;46196;52.970;6.954;2023-02-16T12:43:44;8.70;99.90
60353;DHT22;46196;52.970;6.954;2023-02-16T12:46:25;8.60;99.90
60353;DHT22;46196;52.970;6.954;2023-02-16T12:48:56;8.70;99.90
60353;DHT22;46196;52.970;6.954;2023-02-16T12:51:32;8.70;99.90
60353;DHT22;46196;52.970;6.954;2023-02-16T12:54:23;8.80;99.90
60353;DHT22;46196;52.970;6.954;2023-02-16T12:57:03;8.90;99.90
60353;DHT22;46196;52.970;6.954;2023-02-16T12:59:41;9.00;99.90
60353;DHT22;46196;52.970;6.954;2023-02-16T13:02:26;9.10;99.90
60353;DHT22;46196;52.970;6.954;2023-02-16T13:05:34;9.20;99.90
60353;DHT22;46196;52.970;6.954;2023-02-16T13:07:59;9.40;99.90
60353;DHT22;46196;52.970;6.954;2023-02-16T13:13:26;9.70;99.90
60353;DHT22;46196;52.970;6.954;2023-02-16T13:16:10;9.90;99.90
60353;DHT22;46196;52.970;6.954;2023-02-16T13:18:39;10.00;99.90
60353;DHT22;46196;52.970;6.954;2023-02-16T13:27:03;10.40;99.90
60353;DHT22;46196;52.970;6.954;2023-02-16T13:38:08;10.60;99.90
60353;DHT22;46196;52.970;6.954;2023-02-16T13:43:46;10.60;99.90
60353;DHT22;46196;52.970;6.954;2023-02-16T13:46:29;10.60;99.90
60353;DHT22;46196;52.970;6.954;2023-02-16T13:48:56;10.60;99.90
60353;DHT22;46196;52.970;6.954;2023-02-16T13:51:24;10.60;99.90
60353;DHT22;46196;52.970;6.954;2023-02-16T13:53:59;10.60;99.90
60353;DHT22;46196;52.970;6.954;2023-02-16T13:59:57;10.70;99.90
60353;DHT22;46196;52.970;6.954;2023-02-16T14:01:49;10.70;99.90
60353;DHT22;46196;52.970;6.954;2023-02-16T14:09:31;10.70;99.90
60353;DHT22;46196;52.970;6.954;2023-02-16T14:22:52;10.50;99.90
60353;DHT22;46196;52.970;6.954;2023-02-16T14:27:47;10.50;99.90
60353;DHT22;46196;52.970;6.954;2023-02-16T14:32:50;10.30;99.90
60353;DHT22;46196;52.970;6.954;2023-02-16T14:35:21;10.20;99.90
60353;DHT22;46196;52.970;6.954;2023-02-16T14:37:55;10.20;99.90
60353;DHT22;46196;52.970;6.954;2023-02-16T14:40:41;10.20;99.90
60353;DHT22;46196;52.970;6.954;2023-02-16T14:43:39;10.20;99.90
60353;DHT22;46196;52.970;6.954;2023-02-16T14:55:32;10.10;99.90
60353;DHT22;46196;52.970;6.954;2023-02-16T14:59:25;10.00;99.90
60353;DHT22;46196;52.970;6.954;2023-02-16T15:01:19;10.10;99.90
60353;DHT22;46196;52.970;6.954;2023-02-16T15:03:51;10.00;99.90
60353;DHT22;46196;52.970;6.954;2023-02-16T15:06:31;9.90;99.90
60353;DHT22;46196;52.970;6.954;2023-02-16T15:09:11;9.90;99.90
60353;DHT22;46196;52.970;6.954;2023-02-16T15:11:57;9.80;99.90
60353;DHT22;46196;52.970;6.954;2023-02-16T15:17:39;9.70;99.90
60353;DHT22;46196;52.970;6.954;2023-02-16T15:22:48;9.70;99.90
60353;DHT22;46196;52.970;6.954;2023-02-16T15:25:36;9.60;99.90
60353;DHT22;46196;52.970;6.954;2023-02-16T15:28:21;9.60;99.90
60353;DHT22;46196;52.970;6.954;2023-02-16T15:33:32;9.50;99.90
60353;DHT22;46196;52.970;6.954;2023-02-16T15:36:10;9.50;99.90
60353;DHT22;46196;52.970;6.954;2023-02-16T15:38:53;9.40;99.90
60353;DHT22;46196;52.970;6.954;2023-02-16T15:41:34;9.40;99.90
60353;DHT22;46196;52.970;6.954;2023-02-16T15:44:01;9.30;99.90
60353;DHT22;46196;52.970;6.954;2023-02-16T15:49:35;9.30;99.90
60353;DHT22;46196;52.970;6.954;2023-02-16T15:52:17;9.30;99.90
60353;DHT22;46196;52.970;6.954;2023-02-16T15:54:44;9.20;99.90
60353;DHT22;46196;52.970;6.954;2023-02-16T15:57:33;9.20;99.90
60353;DHT22;46196;52.970;6.954;2023-02-16T16:00:12;9.10;99.90
60353;DHT22;46196;52.970;6.954;2023-02-16T16:02:42;9.10;99.90
60353;DHT22;46196;52.970;6.954;2023-02-16T16:05:32;9.10;99.90
60353;DHT22;46196;52.970;6.954;2023-02-16T16:08:01;9.00;99.90
60353;DHT22;46196;52.970;6.954;2023-02-16T16:10:31;9.00;99.90
60353;DHT22;46196;52.970;6.954;2023-02-16T16:13:03;8.90;99.90
60353;DHT22;46196;52.970;6.954;2023-02-16T16:15:34;8.90;99.90
60353;DHT22;46196;52.970;6.954;2023-02-16T16:18:01;8.90;99.90
60353;DHT22;46196;52.970;6.954;2023-02-16T16:20:36;8.90;99.90
60353;DHT22;46196;52.970;6.954;2023-02-16T16:23:23;8.80;99.90
60353;DHT22;46196;52.970;6.954;2023-02-16T16:25:50;8.80;99.90
60353;DHT22;46196;52.970;6.954;2023-02-16T16:33:56;8.70;99.90
60353;DHT22;46196;52.970;6.954;2023-02-16T16:36:30;9.50;99.90
60353;DHT22;46196;52.970;6.954;2023-02-16T16:41:39;8.60;99.90
60353;DHT22;46196;52.970;6.954;2023-02-16T16:44:10;8.20;99.90
60353;DHT22;46196;52.970;6.954;2023-02-16T16:46:37;8.60;99.90
60353;DHT22;46196;52.970;6.954;2023-02-16T16:49:03;8.60;99.90
60353;DHT22;46196;52.970;6.954;2023-02-16T16:51:41;8.60;99.90
60353;DHT22;46196;52.970;6.954;2023-02-16T16:54:30;8.60;99.90
60353;DHT22;46196;52.970;6.954;2023-02-16T16:56:56;8.60;99.90
60353;DHT22;46196;52.970;6.954;2023-02-16T16:59:22;8.60;99.90
60353;DHT22;46196;52.970;6.954;2023-02-16T17:01:47;8.60;99.90
60353;DHT22;46196;52.970;6.954;2023-02-16T17:04:17;8.60;99.90
60353;DHT22;46196;52.970;6.954;2023-02-16T17:06:43;8.60;99.90
60353;DHT22;46196;52.970;6.954;2023-02-16T17:09:09;8.60;99.90
60353;DHT22;46196;52.970;6.954;2023-02-16T17:11:36;8.60;99.90
60353;DHT22;46196;52.970;6.954;2023-02-16T17:14:15;8.60;99.90
60353;DHT22;46196;52.970;6.954;2023-02-16T17:16:43;8.60;99.90
60353;DHT22;46196;52.970;6.954;2023-02-16T17:19:14;8.60;99.90
60353;DHT22;46196;52.970;6.954;2023-02-16T17:21:40;8.60;99.90
60353;DHT22;46196;52.970;6.954;2023-02-16T17:24:06;8.60;99.90
60353;DHT22;46196;52.970;6.954;2023-02-16T17:26:35;8.60;99.90
60353;DHT22;46196;52.970;6.954;2023-02-16T17:29:01;8.60;99.90
60353;DHT22;46196;52.970;6.954;2023-02-16T17:31:27;8.60;99.90
60353;DHT22;46196;52.970;6.954;2023-02-16T17:33:52;8.60;99.90
60353;DHT22;46196;52.970;6.954;2023-02-16T17:36:19;8.60;99.90
60353;DHT22;46196;52.970;6.954;2023-02-16T17:38:47;8.60;99.90
60353;DHT22;46196;52.970;6.954;2023-02-16T17:43:47;8.60;99.90
60353;DHT22;46196;52.970;6.954;2023-02-16T17:46:13;8.60;99.90
60353;DHT22;46196;52.970;6.954;2023-02-16T17:48:39;8.60;99.90
60353;DHT22;46196;52.970;6.954;2023-02-16T17:51:12;8.60;99.90
60353;DHT22;46196;52.970;6.954;2023-02-16T17:53:39;8.60;99.90
60353;DHT22;46196;52.970;6.954;2023-02-16T17:56:05;8.60;99.90
60353;DHT22;46196;52.970;6.954;2023-02-16T17:58:31;8.50;99.90
60353;DHT22;46196;52.970;6.954;2023-02-16T18:00:56;8.50;99.90
60353;DHT22;46196;52.970;6.954;2023-02-16T18:03:22;8.50;99.90
60353;DHT22;46196;52.970;6.954;2023-02-16T18:05:49;8.50;99.90
60353;DHT22;46196;52.970;6.954;2023-02-16T18:08:15;8.50;99.90
60353;DHT22;46196;52.970;6.954;2023-02-16T18:10:45;8.50;99.90
60353;DHT22;46196;52.970;6.954;2023-02-16T18:13:11;8.50;99.90
60353;DHT22;46196;52.970;6.954;2023-02-16T18:15:38;8.40;99.90
60353;DHT22;46196;52.970;6.954;2023-02-16T18:18:05;8.50;99.90
60353;DHT22;46196;52.970;6.954;2023-02-16T18:20:31;8.40;99.90
60353;DHT22;46196;52.970;6.954;2023-02-16T18:22:57;8.50;99.90
60353;DHT22;46196;52.970;6.954;2023-02-16T18:25:23;8.50;99.90
60353;DHT22;46196;52.970;6.954;2023-02-16T18:27:49;8.50;99.90
60353;DHT22;46196;52.970;6.954;2023-02-16T18:30:15;8.50;99.90
60353;DHT22;46196;52.970;6.954;2023-02-16T18:32:42;8.50;99.90
60353;DHT22;46196;52.970;6.954;2023-02-16T18:35:09;8.50;99.90
60353;DHT22;46196;52.970;6.954;2023-02-16T18:37:36;8.50;99.90
60353;DHT22;46196;52.970;6.954;2023-02-16T18:40:03;8.50;99.90
60353;DHT22;46196;52.970;6.954;2023-02-16T18:42:29;8.50;99.90
60353;DHT22;46196;52.970;6.954;2023-02-16T18:44:55;8.50;99.90
60353;DHT22;46196;52.970;6.954;2023-02-16T18:47:21;8.60;99.90
60353;DHT22;46196;52.970;6.954;2023-02-16T18:49:47;8.60;99.90
60353;DHT22;46196;52.970;6.954;2023-02-16T18:52:15;8.60;99.90
60353;DHT22;46196;52.970;6.954;2023-02-16T18:54:44;8.60;99.90
60353;DHT22;46196;52.970;6.954;2023-02-16T18:57:10;8.60;99.90
60353;DHT22;46196;52.970;6.954;2023-02-16T18:59:35;8.60;99.90